Bagan Pulau Ketam, Malaysia

7:18 PM MYT on December 11, 2016 (GMT +0800)
Klang | | Change Station

Elev 20 ft 3.05 °N, 101.45 °E | Updated 18 seconds ago

Overcast
Overcast
79.3 °F
Feels Like 82 °F
N
1.1
Wind Variable Wind from West
Gusts 2.5 mph

Today
High -- | Low -- °F
--% Chance of Precip.
Yesterday
High -- | Low -- °F
Precip. -- in
Pressure 29.77 in
Visibility 6.2 miles
Clouds Few 1700 ft
Mostly Cloudy 14000 ft
Mostly Cloudy 28000 ft
Heat Index 82 °F
Dew Point 70 °F
Humidity 72%
Rainfall 0.32 in
Snow Depth Not available.
7:09 AM 7:06 PM
Waxing Gibbous, 91% visible
METAR WMKK 111100Z 00000KT 9999 FEW017CB BKN140 BKN280 25/24 Q1008
Pressure 29.77 in
Visibility 6.2 miles
Clouds Few 1700 ft
Mostly Cloudy 14000 ft
Mostly Cloudy 28000 ft
Heat Index 82 °F
Dew Point 70 °F
Humidity 72%
Rainfall 0.32 in
Snow Depth Not available.
7:09 AM 7:06 PM
Waxing Gibbous, 91% visible
METAR WMKK 111100Z 00000KT 9999 FEW017CB BKN140 BKN280 25/24 Q1008

10-Day Weather Forecast

No radar image for this location.
×

Almanac

Astronomy

Dec. 11, 2016 Rise Set
Actual Time
Civil Twilight
Nautical Twilight
Astronomical Twilight
Moon
Length of Visible Light
Length of Day
Tomorrow will be .
, % of the Moon is Illuminated

Today's Extremes

Country Highs Country Lows

Community

WunderPhotos

Upload Photos

1,956,710 photos uploaded!

WunderBlog® & News

Nearby

Air Quality

  Air Quality AQ Index Pollutant
Not available.

Snow Depth

Station Depth Elevation

Earthquake Activity

City Distance Mag. Time & Date
Minimum magnitude displayed is 2.5.

Coastal Water Temperatures

Place Temperature

Stations

Nearby Weather Stations

Station Location Temp. Windchill Dew Point Humidity Wind Precip. Elev Updated Type